sensor_id;sensor_type;location;lat;lon;timestamp;P1;durP1;ratioP1;P2;durP2;ratioP2
32329;SDS011;18807;52.434;13.238;2023-04-29T00:02:16;6.40;;;5.72;;
32329;SDS011;18807;52.434;13.238;2023-04-29T00:09:50;7.20;;;6.45;;
32329;SDS011;18807;52.434;13.238;2023-04-29T00:17:26;9.13;;;7.00;;
32329;SDS011;18807;52.434;13.238;2023-04-29T00:25:00;9.27;;;6.75;;
32329;SDS011;18807;52.434;13.238;2023-04-29T00:32:37;8.23;;;6.68;;
32329;SDS011;18807;52.434;13.238;2023-04-29T00:40:11;8.60;;;7.40;;
32329;SDS011;18807;52.434;13.238;2023-04-29T00:47:48;8.93;;;7.30;;
32329;SDS011;18807;52.434;13.238;2023-04-29T00:55:24;7.88;;;6.95;;
32329;SDS011;18807;52.434;13.238;2023-04-29T01:03:00;10.27;;;7.67;;
32329;SDS011;18807;52.434;13.238;2023-04-29T01:10:38;12.27;;;8.07;;
32329;SDS011;18807;52.434;13.238;2023-04-29T01:18:19;9.52;;;8.45;;
32329;SDS011;18807;52.434;13.238;2023-04-29T01:26:00;11.40;;;8.50;;
32329;SDS011;18807;52.434;13.238;2023-04-29T01:33:37;12.40;;;10.32;;
32329;SDS011;18807;52.434;13.238;2023-04-29T01:41:20;13.20;;;9.70;;
32329;SDS011;18807;52.434;13.238;2023-04-29T01:49:00;14.48;;;10.60;;
32329;SDS011;18807;52.434;13.238;2023-04-29T01:56:36;16.23;;;11.77;;
32329;SDS011;18807;52.434;13.238;2023-04-29T02:04:10;14.23;;;10.18;;
32329;SDS011;18807;52.434;13.238;2023-04-29T02:11:45;13.20;;;10.00;;
32329;SDS011;18807;52.434;13.238;2023-04-29T02:19:19;14.57;;;11.57;;
32329;SDS011;18807;52.434;13.238;2023-04-29T02:26:55;16.73;;;13.13;;
32329;SDS011;18807;52.434;13.238;2023-04-29T02:34:30;18.27;;;12.75;;
32329;SDS011;18807;52.434;13.238;2023-04-29T02:42:05;15.88;;;12.55;;
32329;SDS011;18807;52.434;13.238;2023-04-29T02:49:39;18.98;;;16.67;;
32329;SDS011;18807;52.434;13.238;2023-04-29T02:57:15;17.55;;;14.63;;
32329;SDS011;18807;52.434;13.238;2023-04-29T03:04:49;16.77;;;12.93;;
32329;SDS011;18807;52.434;13.238;2023-04-29T03:12:25;22.50;;;15.05;;
32329;SDS011;18807;52.434;13.238;2023-04-29T03:19:59;18.65;;;14.50;;
32329;SDS011;18807;52.434;13.238;2023-04-29T03:27:34;20.75;;;14.93;;
32329;SDS011;18807;52.434;13.238;2023-04-29T03:35:08;16.88;;;13.50;;
32329;SDS011;18807;52.434;13.238;2023-04-29T03:42:48;18.70;;;13.27;;
32329;SDS011;18807;52.434;13.238;2023-04-29T03:50:22;18.73;;;14.15;;
32329;SDS011;18807;52.434;13.238;2023-04-29T03:57:58;20.63;;;15.02;;
32329;SDS011;18807;52.434;13.238;2023-04-29T04:05:32;23.17;;;15.55;;
32329;SDS011;18807;52.434;13.238;2023-04-29T04:13:08;22.85;;;15.55;;
32329;SDS011;18807;52.434;13.238;2023-04-29T04:20:42;24.42;;;15.30;;
32329;SDS011;18807;52.434;13.238;2023-04-29T04:28:17;23.13;;;16.02;;
32329;SDS011;18807;52.434;13.238;2023-04-29T04:35:51;25.70;;;16.88;;
32329;SDS011;18807;52.434;13.238;2023-04-29T04:43:26;23.30;;;15.85;;
32329;SDS011;18807;52.434;13.238;2023-04-29T04:51:06;23.40;;;15.48;;
32329;SDS011;18807;52.434;13.238;2023-04-29T04:58:42;26.10;;;17.02;;
32329;SDS011;18807;52.434;13.238;2023-04-29T05:06:16;29.75;;;18.17;;
32329;SDS011;18807;52.434;13.238;2023-04-29T05:13:52;27.52;;;18.20;;
32329;SDS011;18807;52.434;13.238;2023-04-29T05:21:26;26.33;;;17.23;;
32329;SDS011;18807;52.434;13.238;2023-04-29T05:29:02;28.73;;;18.38;;
32329;SDS011;18807;52.434;13.238;2023-04-29T05:36:36;28.85;;;18.42;;
32329;SDS011;18807;52.434;13.238;2023-04-29T05:44:12;27.38;;;17.55;;
32329;SDS011;18807;52.434;13.238;2023-04-29T05:51:46;31.60;;;19.38;;
32329;SDS011;18807;52.434;13.238;2023-04-29T05:59:21;33.80;;;20.17;;
32329;SDS011;18807;52.434;13.238;2023-04-29T06:06:58;29.38;;;18.00;;
32329;SDS011;18807;52.434;13.238;2023-04-29T06:14:39;33.25;;;18.58;;
32329;SDS011;18807;52.434;13.238;2023-04-29T06:22:13;33.10;;;20.45;;
32329;SDS011;18807;52.434;13.238;2023-04-29T06:29:48;32.28;;;18.83;;
32329;SDS011;18807;52.434;13.238;2023-04-29T06:37:22;35.80;;;18.80;;
32329;SDS011;18807;52.434;13.238;2023-04-29T06:44:58;30.00;;;18.17;;
32329;SDS011;18807;52.434;13.238;2023-04-29T06:52:32;33.78;;;17.27;;
32329;SDS011;18807;52.434;13.238;2023-04-29T07:00:08;30.20;;;16.43;;
32329;SDS011;18807;52.434;13.238;2023-04-29T07:07:43;38.58;;;19.33;;
32329;SDS011;18807;52.434;13.238;2023-04-29T07:15:18;42.00;;;21.60;;
32329;SDS011;18807;52.434;13.238;2023-04-29T07:22:52;43.75;;;22.90;;
32329;SDS011;18807;52.434;13.238;2023-04-29T07:30:28;42.87;;;24.20;;
32329;SDS011;18807;52.434;13.238;2023-04-29T07:38:20;42.80;;;23.75;;
32329;SDS011;18807;52.434;13.238;2023-04-29T07:45:56;40.60;;;22.70;;
32329;SDS011;18807;52.434;13.238;2023-04-29T07:53:48;36.85;;;20.52;;
32329;SDS011;18807;52.434;13.238;2023-04-29T08:01:23;37.50;;;21.00;;
32329;SDS011;18807;52.434;13.238;2023-04-29T08:09:14;29.95;;;18.00;;
32329;SDS011;18807;52.434;13.238;2023-04-29T08:16:50;26.93;;;18.70;;
32329;SDS011;18807;52.434;13.238;2023-04-29T08:24:25;25.77;;;18.20;;
32329;SDS011;18807;52.434;13.238;2023-04-29T08:32:02;21.00;;;14.48;;
32329;SDS011;18807;52.434;13.238;2023-04-29T08:39:53;20.23;;;14.40;;
32329;SDS011;18807;52.434;13.238;2023-04-29T08:47:30;24.07;;;16.57;;
32329;SDS011;18807;52.434;13.238;2023-04-29T08:55:05;25.40;;;16.23;;
32329;SDS011;18807;52.434;13.238;2023-04-29T09:02:43;32.00;;;17.33;;
32329;SDS011;18807;52.434;13.238;2023-04-29T09:10:21;34.17;;;19.88;;
32329;SDS011;18807;52.434;13.238;2023-04-29T09:17:57;40.15;;;20.70;;
32329;SDS011;18807;52.434;13.238;2023-04-29T09:25:31;47.58;;;25.30;;
32329;SDS011;18807;52.434;13.238;2023-04-29T09:33:09;37.92;;;22.67;;
32329;SDS011;18807;52.434;13.238;2023-04-29T09:40:45;53.17;;;27.55;;
32329;SDS011;18807;52.434;13.238;2023-04-29T09:48:32;44.22;;;24.33;;
32329;SDS011;18807;52.434;13.238;2023-04-29T09:56:06;39.92;;;21.80;;
32329;SDS011;18807;52.434;13.238;2023-04-29T10:03:59;53.70;;;27.05;;
32329;SDS011;18807;52.434;13.238;2023-04-29T10:11:36;52.22;;;28.92;;
32329;SDS011;18807;52.434;13.238;2023-04-29T10:19:17;53.53;;;26.77;;
32329;SDS011;18807;52.434;13.238;2023-04-29T10:26:57;37.13;;;23.92;;
32329;SDS011;18807;52.434;13.238;2023-04-29T10:34:33;52.35;;;28.65;;
32329;SDS011;18807;52.434;13.238;2023-04-29T10:42:14;50.28;;;27.40;;
32329;SDS011;18807;52.434;13.238;2023-04-29T10:50:04;59.33;;;35.50;;
32329;SDS011;18807;52.434;13.238;2023-04-29T10:57:38;47.83;;;27.50;;
32329;SDS011;18807;52.434;13.238;2023-04-29T11:05:15;47.08;;;29.45;;
32329;SDS011;18807;52.434;13.238;2023-04-29T11:12:59;53.13;;;29.40;;
32329;SDS011;18807;52.434;13.238;2023-04-29T11:21:15;48.25;;;29.40;;
32329;SDS011;18807;52.434;13.238;2023-04-29T11:28:50;48.53;;;29.13;;
32329;SDS011;18807;52.434;13.238;2023-04-29T11:36:25;42.27;;;26.33;;
32329;SDS011;18807;52.434;13.238;2023-04-29T11:44:00;40.50;;;25.85;;
32329;SDS011;18807;52.434;13.238;2023-04-29T11:51:37;31.90;;;22.73;;
32329;SDS011;18807;52.434;13.238;2023-04-29T11:59:12;31.67;;;21.15;;
32329;SDS011;18807;52.434;13.238;2023-04-29T12:06:50;27.38;;;19.40;;
32329;SDS011;18807;52.434;13.238;2023-04-29T12:14:24;24.35;;;17.45;;
32329;SDS011;18807;52.434;13.238;2023-04-29T12:22:17;29.83;;;19.23;;
32329;SDS011;18807;52.434;13.238;2023-04-29T12:29:53;26.98;;;19.13;;
32329;SDS011;18807;52.434;13.238;2023-04-29T12:37:48;26.15;;;18.50;;
32329;SDS011;18807;52.434;13.238;2023-04-29T12:53:15;19.83;;;13.50;;
32329;SDS011;18807;52.434;13.238;2023-04-29T13:00:49;16.38;;;11.30;;
32329;SDS011;18807;52.434;13.238;2023-04-29T13:08:42;12.82;;;9.88;;
32329;SDS011;18807;52.434;13.238;2023-04-29T13:16:17;11.35;;;8.45;;
32329;SDS011;18807;52.434;13.238;2023-04-29T13:23:53;10.43;;;6.88;;
32329;SDS011;18807;52.434;13.238;2023-04-29T13:31:44;7.07;;;5.38;;
32329;SDS011;18807;52.434;13.238;2023-04-29T13:39:21;7.50;;;5.55;;
32329;SDS011;18807;52.434;13.238;2023-04-29T13:47:12;9.52;;;6.82;;
32329;SDS011;18807;52.434;13.238;2023-04-29T13:54:54;11.13;;;7.90;;
32329;SDS011;18807;52.434;13.238;2023-04-29T14:10:42;13.50;;;7.68;;
32329;SDS011;18807;52.434;13.238;2023-04-29T14:18:16;12.00;;;8.30;;
32329;SDS011;18807;52.434;13.238;2023-04-29T14:25:51;11.35;;;7.20;;
32329;SDS011;18807;52.434;13.238;2023-04-29T14:33:37;10.05;;;6.90;;
32329;SDS011;18807;52.434;13.238;2023-04-29T14:41:31;11.63;;;7.82;;
32329;SDS011;18807;52.434;13.238;2023-04-29T14:49:19;8.70;;;6.47;;
32329;SDS011;18807;52.434;13.238;2023-04-29T14:57:12;9.35;;;6.32;;
32329;SDS011;18807;52.434;13.238;2023-04-29T15:04:46;13.57;;;5.93;;
32329;SDS011;18807;52.434;13.238;2023-04-29T15:12:22;7.57;;;6.03;;
32329;SDS011;18807;52.434;13.238;2023-04-29T15:20:14;10.50;;;7.22;;
32329;SDS011;18807;52.434;13.238;2023-04-29T15:28:13;6.97;;;5.68;;
32329;SDS011;18807;52.434;13.238;2023-04-29T15:36:06;9.38;;;6.03;;
32329;SDS011;18807;52.434;13.238;2023-04-29T15:44:06;12.32;;;6.72;;
32329;SDS011;18807;52.434;13.238;2023-04-29T15:51:40;10.15;;;6.57;;
32329;SDS011;18807;52.434;13.238;2023-04-29T15:59:16;10.07;;;6.85;;
32329;SDS011;18807;52.434;13.238;2023-04-29T16:06:51;9.05;;;7.10;;
32329;SDS011;18807;52.434;13.238;2023-04-29T16:14:26;8.50;;;6.70;;
32329;SDS011;18807;52.434;13.238;2023-04-29T16:22:01;11.23;;;7.20;;
32329;SDS011;18807;52.434;13.238;2023-04-29T16:29:37;11.50;;;6.50;;
32329;SDS011;18807;52.434;13.238;2023-04-29T16:37:10;12.20;;;6.22;;
32329;SDS011;18807;52.434;13.238;2023-04-29T16:45:04;9.55;;;4.85;;
32329;SDS011;18807;52.434;13.238;2023-04-29T16:52:56;7.80;;;4.32;;
32329;SDS011;18807;52.434;13.238;2023-04-29T17:00:31;7.67;;;4.27;;
32329;SDS011;18807;52.434;13.238;2023-04-29T17:08:06;11.27;;;3.50;;
32329;SDS011;18807;52.434;13.238;2023-04-29T17:15:45;8.55;;;4.43;;
32329;SDS011;18807;52.434;13.238;2023-04-29T17:23:19;7.28;;;3.33;;
32329;SDS011;18807;52.434;13.238;2023-04-29T17:30:54;11.83;;;3.67;;
32329;SDS011;18807;52.434;13.238;2023-04-29T17:38:32;5.00;;;3.45;;
32329;SDS011;18807;52.434;13.238;2023-04-29T17:46:07;7.60;;;3.53;;
32329;SDS011;18807;52.434;13.238;2023-04-29T17:53:42;8.77;;;3.35;;
32329;SDS011;18807;52.434;13.238;2023-04-29T18:01:17;5.18;;;3.35;;
32329;SDS011;18807;52.434;13.238;2023-04-29T18:09:08;3.28;;;2.95;;
32329;SDS011;18807;52.434;13.238;2023-04-29T18:17:01;4.40;;;2.92;;
32329;SDS011;18807;52.434;13.238;2023-04-29T18:24:35;4.00;;;2.80;;
32329;SDS011;18807;52.434;13.238;2023-04-29T18:32:11;3.00;;;2.70;;
32329;SDS011;18807;52.434;13.238;2023-04-29T18:39:45;4.45;;;2.72;;
32329;SDS011;18807;52.434;13.238;2023-04-29T18:47:20;3.47;;;2.80;;
32329;SDS011;18807;52.434;13.238;2023-04-29T18:54:54;5.15;;;3.33;;
32329;SDS011;18807;52.434;13.238;2023-04-29T19:02:47;3.60;;;3.17;;
32329;SDS011;18807;52.434;13.238;2023-04-29T19:10:21;4.25;;;3.15;;
32329;SDS011;18807;52.434;13.238;2023-04-29T19:17:57;3.20;;;2.90;;
32329;SDS011;18807;52.434;13.238;2023-04-29T19:25:31;5.47;;;3.38;;
32329;SDS011;18807;52.434;13.238;2023-04-29T19:33:07;5.77;;;4.40;;
32329;SDS011;18807;52.434;13.238;2023-04-29T19:40:41;5.80;;;4.00;;
32329;SDS011;18807;52.434;13.238;2023-04-29T19:48:18;5.53;;;4.20;;
32329;SDS011;18807;52.434;13.238;2023-04-29T19:55:55;6.65;;;4.93;;
32329;SDS011;18807;52.434;13.238;2023-04-29T20:03:31;6.47;;;4.40;;
32329;SDS011;18807;52.434;13.238;2023-04-29T20:11:07;5.55;;;4.63;;
32329;SDS011;18807;52.434;13.238;2023-04-29T20:18:44;5.30;;;4.63;;
32329;SDS011;18807;52.434;13.238;2023-04-29T20:26:18;6.45;;;4.60;;
32329;SDS011;18807;52.434;13.238;2023-04-29T20:33:53;6.35;;;4.75;;
32329;SDS011;18807;52.434;13.238;2023-04-29T20:41:27;7.35;;;5.07;;
32329;SDS011;18807;52.434;13.238;2023-04-29T20:49:03;7.75;;;4.70;;
32329;SDS011;18807;52.434;13.238;2023-04-29T20:56:37;5.25;;;4.30;;
32329;SDS011;18807;52.434;13.238;2023-04-29T21:04:13;7.10;;;5.10;;
32329;SDS011;18807;52.434;13.238;2023-04-29T21:11:47;5.95;;;4.80;;
32329;SDS011;18807;52.434;13.238;2023-04-29T21:19:22;5.93;;;4.30;;
32329;SDS011;18807;52.434;13.238;2023-04-29T21:26:56;7.68;;;5.28;;
32329;SDS011;18807;52.434;13.238;2023-04-29T21:34:32;7.03;;;4.90;;
32329;SDS011;18807;52.434;13.238;2023-04-29T21:42:06;7.80;;;5.40;;
32329;SDS011;18807;52.434;13.238;2023-04-29T21:49:42;8.32;;;5.45;;
32329;SDS011;18807;52.434;13.238;2023-04-29T21:57:16;10.52;;;5.97;;
32329;SDS011;18807;52.434;13.238;2023-04-29T22:05:05;6.95;;;4.40;;
32329;SDS011;18807;52.434;13.238;2023-04-29T22:12:40;9.30;;;5.50;;
32329;SDS011;18807;52.434;13.238;2023-04-29T22:20:15;7.25;;;3.80;;
32329;SDS011;18807;52.434;13.238;2023-04-29T22:27:49;4.43;;;3.10;;
32329;SDS011;18807;52.434;13.238;2023-04-29T22:35:25;6.10;;;3.60;;
32329;SDS011;18807;52.434;13.238;2023-04-29T22:42:59;4.43;;;3.88;;
32329;SDS011;18807;52.434;13.238;2023-04-29T22:50:35;7.83;;;3.43;;
32329;SDS011;18807;52.434;13.238;2023-04-29T22:58:09;6.75;;;3.70;;
32329;SDS011;18807;52.434;13.238;2023-04-29T23:05:44;3.23;;;2.70;;
32329;SDS011;18807;52.434;13.238;2023-04-29T23:13:18;8.32;;;3.17;;
32329;SDS011;18807;52.434;13.238;2023-04-29T23:20:54;4.63;;;3.27;;
32329;SDS011;18807;52.434;13.238;2023-04-29T23:28:46;3.35;;;2.67;;
32329;SDS011;18807;52.434;13.238;2023-04-29T23:36:22;5.93;;;2.40;;
32329;SDS011;18807;52.434;13.238;2023-04-29T23:43:56;5.70;;;3.38;;
32329;SDS011;18807;52.434;13.238;2023-04-29T23:51:33;4.50;;;3.10;;
32329;SDS011;18807;52.434;13.238;2023-04-29T23:59:07;6.28;;;2.83;;
